sensor_id;sensor_type;location;lat;lon;timestamp;P1;durP1;ratioP1;P2;durP2;ratioP2
77350;SDS011;66420;50.246;14.320;2023-05-10T00:01:53;3.65;;;2.10;;
77350;SDS011;66420;50.246;14.320;2023-05-10T00:04:38;4.40;;;2.17;;
77350;SDS011;66420;50.246;14.320;2023-05-10T00:07:23;4.18;;;2.00;;
77350;SDS011;66420;50.246;14.320;2023-05-10T00:10:09;4.35;;;2.17;;
77350;SDS011;66420;50.246;14.320;2023-05-10T00:12:54;3.83;;;2.00;;
77350;SDS011;66420;50.246;14.320;2023-05-10T00:15:38;5.18;;;2.30;;
77350;SDS011;66420;50.246;14.320;2023-05-10T00:18:23;2.75;;;1.65;;
77350;SDS011;66420;50.246;14.320;2023-05-10T00:21:08;4.70;;;2.03;;
77350;SDS011;66420;50.246;14.320;2023-05-10T00:23:53;3.53;;;1.90;;
77350;SDS011;66420;50.246;14.320;2023-05-10T00:26:38;6.90;;;1.98;;
77350;SDS011;66420;50.246;14.320;2023-05-10T00:29:23;5.70;;;2.20;;
77350;SDS011;66420;50.246;14.320;2023-05-10T00:32:08;8.73;;;2.30;;
77350;SDS011;66420;50.246;14.320;2023-05-10T00:34:53;5.20;;;2.10;;
77350;SDS011;66420;50.246;14.320;2023-05-10T00:37:38;4.63;;;2.00;;
77350;SDS011;66420;50.246;14.320;2023-05-10T00:40:23;4.68;;;2.10;;
77350;SDS011;66420;50.246;14.320;2023-05-10T00:43:08;3.30;;;1.70;;
77350;SDS011;66420;50.246;14.320;2023-05-10T00:45:53;3.55;;;1.98;;
77350;SDS011;66420;50.246;14.320;2023-05-10T00:48:38;3.42;;;2.00;;
77350;SDS011;66420;50.246;14.320;2023-05-10T00:51:23;5.20;;;2.00;;
77350;SDS011;66420;50.246;14.320;2023-05-10T00:54:08;3.85;;;2.00;;
77350;SDS011;66420;50.246;14.320;2023-05-10T00:56:55;6.57;;;2.13;;
77350;SDS011;66420;50.246;14.320;2023-05-10T00:59:40;3.80;;;1.92;;
77350;SDS011;66420;50.246;14.320;2023-05-10T01:02:25;3.20;;;1.90;;
77350;SDS011;66420;50.246;14.320;2023-05-10T01:05:11;4.75;;;1.98;;
77350;SDS011;66420;50.246;14.320;2023-05-10T01:07:56;6.10;;;2.22;;
77350;SDS011;66420;50.246;14.320;2023-05-10T01:10:41;3.42;;;1.85;;
77350;SDS011;66420;50.246;14.320;2023-05-10T01:13:36;4.90;;;1.90;;
77350;SDS011;66420;50.246;14.320;2023-05-10T01:16:23;6.03;;;2.42;;
77350;SDS011;66420;50.246;14.320;2023-05-10T01:19:12;6.43;;;2.30;;
77350;SDS011;66420;50.246;14.320;2023-05-10T01:25:02;4.35;;;2.20;;
77350;SDS011;66420;50.246;14.320;2023-05-10T01:34:02;4.25;;;2.20;;
77350;SDS011;66420;50.246;14.320;2023-05-10T01:37:28;4.03;;;2.00;;
77350;SDS011;66420;50.246;14.320;2023-05-10T01:40:31;6.85;;;2.53;;
77350;SDS011;66420;50.246;14.320;2023-05-10T01:43:20;4.32;;;1.92;;
77350;SDS011;66420;50.246;14.320;2023-05-10T01:46:14;3.65;;;2.00;;
77350;SDS011;66420;50.246;14.320;2023-05-10T01:49:02;3.75;;;2.10;;
77350;SDS011;66420;50.246;14.320;2023-05-10T01:51:53;4.32;;;2.00;;
77350;SDS011;66420;50.246;14.320;2023-05-10T01:54:41;4.15;;;2.08;;
77350;SDS011;66420;50.246;14.320;2023-05-10T01:57:31;3.33;;;1.88;;
77350;SDS011;66420;50.246;14.320;2023-05-10T02:00:18;4.70;;;2.00;;
77350;SDS011;66420;50.246;14.320;2023-05-10T02:03:05;4.85;;;2.00;;
77350;SDS011;66420;50.246;14.320;2023-05-10T02:05:52;3.60;;;2.20;;
77350;SDS011;66420;50.246;14.320;2023-05-10T02:08:39;3.38;;;2.03;;
77350;SDS011;66420;50.246;14.320;2023-05-10T02:11:25;3.15;;;1.80;;
77350;SDS011;66420;50.246;14.320;2023-05-10T02:14:12;5.03;;;2.10;;
77350;SDS011;66420;50.246;14.320;2023-05-10T02:16:59;4.20;;;2.05;;
77350;SDS011;66420;50.246;14.320;2023-05-10T02:19:45;4.07;;;2.13;;
77350;SDS011;66420;50.246;14.320;2023-05-10T02:22:31;3.58;;;2.00;;
77350;SDS011;66420;50.246;14.320;2023-05-10T02:25:17;5.75;;;2.60;;
77350;SDS011;66420;50.246;14.320;2023-05-10T02:28:03;2.80;;;1.70;;
77350;SDS011;66420;50.246;14.320;2023-05-10T02:30:50;4.03;;;2.05;;
77350;SDS011;66420;50.246;14.320;2023-05-10T02:33:37;4.25;;;2.45;;
77350;SDS011;66420;50.246;14.320;2023-05-10T02:36:24;4.80;;;2.20;;
77350;SDS011;66420;50.246;14.320;2023-05-10T02:39:12;3.75;;;2.13;;
77350;SDS011;66420;50.246;14.320;2023-05-10T02:41:58;3.78;;;2.10;;
77350;SDS011;66420;50.246;14.320;2023-05-10T02:44:48;4.50;;;2.10;;
77350;SDS011;66420;50.246;14.320;2023-05-10T02:47:35;4.82;;;1.90;;
77350;SDS011;66420;50.246;14.320;2023-05-10T02:50:20;3.50;;;1.95;;
77350;SDS011;66420;50.246;14.320;2023-05-10T02:53:09;4.32;;;2.10;;
77350;SDS011;66420;50.246;14.320;2023-05-10T02:55:57;3.58;;;2.03;;
77350;SDS011;66420;50.246;14.320;2023-05-10T02:58:45;3.67;;;1.85;;
77350;SDS011;66420;50.246;14.320;2023-05-10T03:01:30;4.95;;;2.10;;
77350;SDS011;66420;50.246;14.320;2023-05-10T03:04:15;3.80;;;2.20;;
77350;SDS011;66420;50.246;14.320;2023-05-10T03:06:59;4.22;;;1.90;;
77350;SDS011;66420;50.246;14.320;2023-05-10T03:09:44;3.75;;;1.92;;
77350;SDS011;66420;50.246;14.320;2023-05-10T03:18:42;4.35;;;2.15;;
77350;SDS011;66420;50.246;14.320;2023-05-10T03:21:32;3.42;;;2.00;;
77350;SDS011;66420;50.246;14.320;2023-05-10T03:24:20;5.93;;;2.15;;
77350;SDS011;66420;50.246;14.320;2023-05-10T03:27:07;6.95;;;2.20;;
77350;SDS011;66420;50.246;14.320;2023-05-10T03:29:53;3.40;;;2.03;;
77350;SDS011;66420;50.246;14.320;2023-05-10T03:32:39;5.60;;;2.35;;
77350;SDS011;66420;50.246;14.320;2023-05-10T03:35:24;4.78;;;2.47;;
77350;SDS011;66420;50.246;14.320;2023-05-10T03:38:09;3.58;;;2.20;;
77350;SDS011;66420;50.246;14.320;2023-05-10T03:40:54;5.20;;;2.25;;
77350;SDS011;66420;50.246;14.320;2023-05-10T03:43:39;4.68;;;2.15;;
77350;SDS011;66420;50.246;14.320;2023-05-10T03:46:25;3.80;;;2.22;;
77350;SDS011;66420;50.246;14.320;2023-05-10T03:49:10;5.15;;;2.47;;
77350;SDS011;66420;50.246;14.320;2023-05-10T03:51:54;8.55;;;2.80;;
77350;SDS011;66420;50.246;14.320;2023-05-10T03:54:39;3.95;;;2.30;;
77350;SDS011;66420;50.246;14.320;2023-05-10T03:57:24;4.63;;;2.30;;
77350;SDS011;66420;50.246;14.320;2023-05-10T04:00:09;4.68;;;2.15;;
77350;SDS011;66420;50.246;14.320;2023-05-10T04:02:54;5.28;;;2.25;;
77350;SDS011;66420;50.246;14.320;2023-05-10T04:05:39;7.85;;;2.20;;
77350;SDS011;66420;50.246;14.320;2023-05-10T04:08:24;6.30;;;2.28;;
77350;SDS011;66420;50.246;14.320;2023-05-10T04:11:09;8.90;;;2.70;;
77350;SDS011;66420;50.246;14.320;2023-05-10T04:13:56;12.57;;;2.92;;
77350;SDS011;66420;50.246;14.320;2023-05-10T04:16:41;7.15;;;2.33;;
77350;SDS011;66420;50.246;14.320;2023-05-10T04:19:30;9.73;;;2.53;;
77350;SDS011;66420;50.246;14.320;2023-05-10T04:22:14;4.93;;;2.22;;
77350;SDS011;66420;50.246;14.320;2023-05-10T04:24:59;4.20;;;2.53;;
77350;SDS011;66420;50.246;14.320;2023-05-10T04:27:44;4.40;;;2.42;;
77350;SDS011;66420;50.246;14.320;2023-05-10T04:30:29;5.95;;;2.45;;
77350;SDS011;66420;50.246;14.320;2023-05-10T04:33:14;3.95;;;2.47;;
77350;SDS011;66420;50.246;14.320;2023-05-10T04:35:58;4.00;;;2.10;;
77350;SDS011;66420;50.246;14.320;2023-05-10T04:38:43;9.07;;;3.00;;
77350;SDS011;66420;50.246;14.320;2023-05-10T04:41:28;8.00;;;3.30;;
77350;SDS011;66420;50.246;14.320;2023-05-10T06:21:58;5.55;;;3.00;;
77350;SDS011;66420;50.246;14.320;2023-05-10T06:24:43;5.15;;;2.65;;
77350;SDS011;66420;50.246;14.320;2023-05-10T06:27:28;7.22;;;2.67;;
77350;SDS011;66420;50.246;14.320;2023-05-10T06:30:13;5.22;;;2.53;;
77350;SDS011;66420;50.246;14.320;2023-05-10T06:32:58;6.30;;;2.58;;
77350;SDS011;66420;50.246;14.320;2023-05-10T06:35:43;5.20;;;2.38;;
77350;SDS011;66420;50.246;14.320;2023-05-10T06:38:27;10.70;;;3.00;;
77350;SDS011;66420;50.246;14.320;2023-05-10T06:41:12;4.22;;;2.63;;
77350;SDS011;66420;50.246;14.320;2023-05-10T06:43:56;5.20;;;3.13;;
77350;SDS011;66420;50.246;14.320;2023-05-10T06:46:41;6.78;;;2.58;;
77350;SDS011;66420;50.246;14.320;2023-05-10T06:49:26;4.53;;;2.67;;
77350;SDS011;66420;50.246;14.320;2023-05-10T06:52:11;4.35;;;2.85;;
77350;SDS011;66420;50.246;14.320;2023-05-10T06:54:56;4.55;;;2.50;;
77350;SDS011;66420;50.246;14.320;2023-05-10T06:57:42;7.68;;;2.70;;
77350;SDS011;66420;50.246;14.320;2023-05-10T07:00:26;7.70;;;2.83;;
77350;SDS011;66420;50.246;14.320;2023-05-10T07:03:11;6.40;;;2.97;;
77350;SDS011;66420;50.246;14.320;2023-05-10T07:06:00;8.00;;;3.20;;
77350;SDS011;66420;50.246;14.320;2023-05-10T07:08:47;7.30;;;3.08;;
77350;SDS011;66420;50.246;14.320;2023-05-10T07:11:31;6.25;;;2.92;;
77350;SDS011;66420;50.246;14.320;2023-05-10T07:14:16;4.90;;;2.85;;
77350;SDS011;66420;50.246;14.320;2023-05-10T07:17:01;5.28;;;3.10;;
77350;SDS011;66420;50.246;14.320;2023-05-10T07:19:45;6.90;;;2.70;;
77350;SDS011;66420;50.246;14.320;2023-05-10T07:22:30;5.93;;;2.92;;
77350;SDS011;66420;50.246;14.320;2023-05-10T07:25:14;4.93;;;2.80;;
77350;SDS011;66420;50.246;14.320;2023-05-10T07:27:59;5.72;;;3.00;;
77350;SDS011;66420;50.246;14.320;2023-05-10T07:30:44;5.78;;;2.90;;
77350;SDS011;66420;50.246;14.320;2023-05-10T07:33:29;5.78;;;3.20;;
77350;SDS011;66420;50.246;14.320;2023-05-10T07:36:13;6.13;;;2.97;;
77350;SDS011;66420;50.246;14.320;2023-05-10T07:38:59;5.40;;;3.08;;
77350;SDS011;66420;50.246;14.320;2023-05-10T07:41:43;5.18;;;3.13;;
77350;SDS011;66420;50.246;14.320;2023-05-10T07:44:28;5.18;;;2.92;;
77350;SDS011;66420;50.246;14.320;2023-05-10T07:47:12;10.23;;;3.50;;
77350;SDS011;66420;50.246;14.320;2023-05-10T07:49:57;4.93;;;3.35;;
77350;SDS011;66420;50.246;14.320;2023-05-10T07:52:43;5.40;;;2.90;;
77350;SDS011;66420;50.246;14.320;2023-05-10T07:55:27;4.00;;;2.45;;
77350;SDS011;66420;50.246;14.320;2023-05-10T07:58:12;5.72;;;3.08;;
77350;SDS011;66420;50.246;14.320;2023-05-10T08:00:56;5.80;;;3.30;;
77350;SDS011;66420;50.246;14.320;2023-05-10T08:03:41;6.20;;;3.10;;
77350;SDS011;66420;50.246;14.320;2023-05-10T08:06:26;4.90;;;2.80;;
77350;SDS011;66420;50.246;14.320;2023-05-10T08:09:12;6.65;;;3.00;;
77350;SDS011;66420;50.246;14.320;2023-05-10T08:11:57;8.77;;;3.30;;
77350;SDS011;66420;50.246;14.320;2023-05-10T08:14:43;6.05;;;3.33;;
77350;SDS011;66420;50.246;14.320;2023-05-10T08:17:28;8.20;;;3.20;;
77350;SDS011;66420;50.246;14.320;2023-05-10T08:20:13;5.03;;;3.05;;
77350;SDS011;66420;50.246;14.320;2023-05-10T08:23:00;6.53;;;3.17;;
77350;SDS011;66420;50.246;14.320;2023-05-10T08:25:45;5.75;;;3.05;;
77350;SDS011;66420;50.246;14.320;2023-05-10T08:28:30;5.15;;;2.67;;
77350;SDS011;66420;50.246;14.320;2023-05-10T08:31:15;5.38;;;2.90;;
77350;SDS011;66420;50.246;14.320;2023-05-10T08:34:00;4.50;;;3.00;;
77350;SDS011;66420;50.246;14.320;2023-05-10T08:36:45;5.72;;;2.53;;
77350;SDS011;66420;50.246;14.320;2023-05-10T08:39:33;6.13;;;2.50;;
77350;SDS011;66420;50.246;14.320;2023-05-10T08:42:19;6.03;;;2.47;;
77350;SDS011;66420;50.246;14.320;2023-05-10T08:45:10;4.32;;;2.33;;
77350;SDS011;66420;50.246;14.320;2023-05-10T08:47:55;3.38;;;2.20;;
77350;SDS011;66420;50.246;14.320;2023-05-10T08:50:41;5.25;;;2.60;;
77350;SDS011;66420;50.246;14.320;2023-05-10T08:53:27;4.32;;;2.38;;
77350;SDS011;66420;50.246;14.320;2023-05-10T08:56:13;5.90;;;2.28;;
77350;SDS011;66420;50.246;14.320;2023-05-10T08:59:00;7.13;;;2.60;;
77350;SDS011;66420;50.246;14.320;2023-05-10T09:01:45;3.85;;;2.55;;
77350;SDS011;66420;50.246;14.320;2023-05-10T09:04:32;4.10;;;2.67;;
77350;SDS011;66420;50.246;14.320;2023-05-10T09:07:17;6.65;;;3.30;;
77350;SDS011;66420;50.246;14.320;2023-05-10T09:10:02;7.03;;;2.65;;
77350;SDS011;66420;50.246;14.320;2023-05-10T09:12:48;6.10;;;2.80;;
77350;SDS011;66420;50.246;14.320;2023-05-10T09:15:35;4.43;;;2.55;;
77350;SDS011;66420;50.246;14.320;2023-05-10T09:18:19;6.75;;;2.70;;
77350;SDS011;66420;50.246;14.320;2023-05-10T09:21:04;6.93;;;2.78;;
77350;SDS011;66420;50.246;14.320;2023-05-10T09:23:49;8.65;;;3.03;;
77350;SDS011;66420;50.246;14.320;2023-05-10T09:26:35;6.70;;;2.67;;
77350;SDS011;66420;50.246;14.320;2023-05-10T09:29:42;3.67;;;2.45;;
77350;SDS011;66420;50.246;14.320;2023-05-10T09:32:37;5.45;;;2.88;;
77350;SDS011;66420;50.246;14.320;2023-05-10T09:35:22;4.25;;;2.33;;
77350;SDS011;66420;50.246;14.320;2023-05-10T09:38:09;4.57;;;2.50;;
77350;SDS011;66420;50.246;14.320;2023-05-10T09:40:54;9.90;;;3.33;;
77350;SDS011;66420;50.246;14.320;2023-05-10T09:43:39;6.18;;;2.80;;
77350;SDS011;66420;50.246;14.320;2023-05-10T09:46:24;5.45;;;2.83;;
77350;SDS011;66420;50.246;14.320;2023-05-10T09:49:11;7.25;;;2.85;;
77350;SDS011;66420;50.246;14.320;2023-05-10T09:52:05;6.05;;;2.60;;
77350;SDS011;66420;50.246;14.320;2023-05-10T09:54:54;6.47;;;2.85;;
77350;SDS011;66420;50.246;14.320;2023-05-10T09:57:39;7.57;;;2.97;;
77350;SDS011;66420;50.246;14.320;2023-05-10T10:00:25;9.70;;;2.95;;
77350;SDS011;66420;50.246;14.320;2023-05-10T10:03:12;4.95;;;2.63;;
77350;SDS011;66420;50.246;14.320;2023-05-10T10:06:04;4.32;;;2.70;;
77350;SDS011;66420;50.246;14.320;2023-05-10T10:08:51;4.95;;;2.63;;
77350;SDS011;66420;50.246;14.320;2023-05-10T10:11:38;4.75;;;2.40;;
77350;SDS011;66420;50.246;14.320;2023-05-10T10:14:23;7.65;;;3.05;;
77350;SDS011;66420;50.246;14.320;2023-05-10T10:17:08;6.13;;;2.70;;
77350;SDS011;66420;50.246;14.320;2023-05-10T10:19:54;5.85;;;2.67;;
77350;SDS011;66420;50.246;14.320;2023-05-10T10:22:41;7.50;;;2.42;;
77350;SDS011;66420;50.246;14.320;2023-05-10T10:25:27;7.70;;;2.58;;
77350;SDS011;66420;50.246;14.320;2023-05-10T10:28:35;5.88;;;2.30;;
77350;SDS011;66420;50.246;14.320;2023-05-10T10:31:36;6.68;;;2.63;;
77350;SDS011;66420;50.246;14.320;2023-05-10T10:34:26;4.68;;;2.83;;
77350;SDS011;66420;50.246;14.320;2023-05-10T10:37:13;5.30;;;2.80;;
77350;SDS011;66420;50.246;14.320;2023-05-10T10:39:58;5.65;;;2.45;;
77350;SDS011;66420;50.246;14.320;2023-05-10T10:42:46;5.68;;;3.00;;
77350;SDS011;66420;50.246;14.320;2023-05-10T10:45:33;5.93;;;2.88;;
77350;SDS011;66420;50.246;14.320;2023-05-10T10:48:19;6.65;;;2.60;;
77350;SDS011;66420;50.246;14.320;2023-05-10T10:51:05;5.05;;;2.90;;
77350;SDS011;66420;50.246;14.320;2023-05-10T10:53:49;5.68;;;2.67;;
77350;SDS011;66420;50.246;14.320;2023-05-10T10:56:34;4.88;;;2.50;;
77350;SDS011;66420;50.246;14.320;2023-05-10T10:59:26;5.88;;;2.88;;
77350;SDS011;66420;50.246;14.320;2023-05-10T11:08:31;5.82;;;2.55;;
77350;SDS011;66420;50.246;14.320;2023-05-10T11:11:17;4.75;;;2.70;;
77350;SDS011;66420;50.246;14.320;2023-05-10T11:14:06;6.95;;;2.22;;
77350;SDS011;66420;50.246;14.320;2023-05-10T11:16:51;3.80;;;2.25;;
77350;SDS011;66420;50.246;14.320;2023-05-10T11:19:36;4.80;;;2.58;;
77350;SDS011;66420;50.246;14.320;2023-05-10T11:22:23;4.75;;;2.40;;
77350;SDS011;66420;50.246;14.320;2023-05-10T11:25:09;4.93;;;2.38;;
77350;SDS011;66420;50.246;14.320;2023-05-10T11:27:54;4.75;;;2.60;;
77350;SDS011;66420;50.246;14.320;2023-05-10T11:30:41;4.93;;;2.53;;
77350;SDS011;66420;50.246;14.320;2023-05-10T11:33:28;5.60;;;2.33;;
77350;SDS011;66420;50.246;14.320;2023-05-10T11:36:29;4.18;;;2.28;;
77350;SDS011;66420;50.246;14.320;2023-05-10T11:39:17;7.47;;;2.50;;
77350;SDS011;66420;50.246;14.320;2023-05-10T11:42:02;4.53;;;2.10;;
77350;SDS011;66420;50.246;14.320;2023-05-10T11:44:47;4.65;;;2.00;;
77350;SDS011;66420;50.246;14.320;2023-05-10T11:47:32;3.63;;;2.10;;
77350;SDS011;66420;50.246;14.320;2023-05-10T11:50:17;3.60;;;2.30;;
77350;SDS011;66420;50.246;14.320;2023-05-10T11:53:02;4.20;;;2.20;;
77350;SDS011;66420;50.246;14.320;2023-05-10T11:55:47;3.22;;;1.90;;
77350;SDS011;66420;50.246;14.320;2023-05-10T11:58:32;3.60;;;2.28;;
77350;SDS011;66420;50.246;14.320;2023-05-10T12:01:17;2.80;;;1.83;;
77350;SDS011;66420;50.246;14.320;2023-05-10T12:04:02;5.60;;;1.95;;
77350;SDS011;66420;50.246;14.320;2023-05-10T12:06:47;5.47;;;2.17;;
77350;SDS011;66420;50.246;14.320;2023-05-10T12:09:32;5.22;;;1.95;;
77350;SDS011;66420;50.246;14.320;2023-05-10T12:12:16;5.03;;;2.05;;
77350;SDS011;66420;50.246;14.320;2023-05-10T12:15:02;3.78;;;2.13;;
77350;SDS011;66420;50.246;14.320;2023-05-10T12:17:48;7.55;;;2.15;;
77350;SDS011;66420;50.246;14.320;2023-05-10T12:20:33;4.22;;;2.20;;
77350;SDS011;66420;50.246;14.320;2023-05-10T12:23:17;6.80;;;2.20;;
77350;SDS011;66420;50.246;14.320;2023-05-10T12:26:05;4.50;;;2.03;;
77350;SDS011;66420;50.246;14.320;2023-05-10T12:28:50;4.28;;;2.50;;
77350;SDS011;66420;50.246;14.320;2023-05-10T12:31:48;3.55;;;2.30;;
77350;SDS011;66420;50.246;14.320;2023-05-10T12:34:38;3.85;;;2.20;;
77350;SDS011;66420;50.246;14.320;2023-05-10T12:37:24;4.47;;;2.20;;
77350;SDS011;66420;50.246;14.320;2023-05-10T12:40:11;5.38;;;2.00;;
77350;SDS011;66420;50.246;14.320;2023-05-10T12:42:56;6.30;;;2.15;;
77350;SDS011;66420;50.246;14.320;2023-05-10T12:45:41;5.28;;;2.00;;
77350;SDS011;66420;50.246;14.320;2023-05-10T12:48:25;3.75;;;1.75;;
77350;SDS011;66420;50.246;14.320;2023-05-10T12:51:12;4.50;;;2.10;;
77350;SDS011;66420;50.246;14.320;2023-05-10T12:54:00;4.80;;;1.90;;
77350;SDS011;66420;50.246;14.320;2023-05-10T12:56:44;2.70;;;1.90;;
77350;SDS011;66420;50.246;14.320;2023-05-10T12:59:29;6.50;;;2.03;;
77350;SDS011;66420;50.246;14.320;2023-05-10T13:02:13;3.97;;;1.83;;
77350;SDS011;66420;50.246;14.320;2023-05-10T13:04:59;6.07;;;2.17;;
77350;SDS011;66420;50.246;14.320;2023-05-10T13:07:44;5.15;;;2.03;;
77350;SDS011;66420;50.246;14.320;2023-05-10T13:10:29;5.88;;;2.40;;
77350;SDS011;66420;50.246;14.320;2023-05-10T13:13:15;5.65;;;2.28;;
77350;SDS011;66420;50.246;14.320;2023-05-10T13:16:00;5.25;;;2.10;;
77350;SDS011;66420;50.246;14.320;2023-05-10T13:18:44;4.90;;;2.40;;
77350;SDS011;66420;50.246;14.320;2023-05-10T13:21:29;3.55;;;1.80;;
77350;SDS011;66420;50.246;14.320;2023-05-10T13:24:14;7.15;;;2.20;;
77350;SDS011;66420;50.246;14.320;2023-05-10T13:26:59;7.05;;;2.15;;
77350;SDS011;66420;50.246;14.320;2023-05-10T13:29:44;4.45;;;2.30;;
77350;SDS011;66420;50.246;14.320;2023-05-10T13:32:29;4.57;;;2.17;;
77350;SDS011;66420;50.246;14.320;2023-05-10T13:35:14;9.35;;;2.45;;
77350;SDS011;66420;50.246;14.320;2023-05-10T13:37:59;4.70;;;2.03;;
77350;SDS011;66420;50.246;14.320;2023-05-10T13:40:44;5.78;;;2.20;;
77350;SDS011;66420;50.246;14.320;2023-05-10T13:43:29;7.07;;;2.20;;
77350;SDS011;66420;50.246;14.320;2023-05-10T13:46:13;8.35;;;2.50;;
77350;SDS011;66420;50.246;14.320;2023-05-10T13:48:58;7.20;;;2.25;;
77350;SDS011;66420;50.246;14.320;2023-05-10T13:51:43;3.30;;;2.10;;
77350;SDS011;66420;50.246;14.320;2023-05-10T13:54:27;3.83;;;2.00;;
77350;SDS011;66420;50.246;14.320;2023-05-10T13:57:14;3.38;;;1.83;;
77350;SDS011;66420;50.246;14.320;2023-05-10T14:00:00;5.20;;;2.00;;
77350;SDS011;66420;50.246;14.320;2023-05-10T14:02:46;5.50;;;2.28;;
77350;SDS011;66420;50.246;14.320;2023-05-10T14:05:30;7.88;;;3.20;;
77350;SDS011;66420;50.246;14.320;2023-05-10T14:08:14;5.63;;;3.30;;
77350;SDS011;66420;50.246;14.320;2023-05-10T14:10:59;6.82;;;3.40;;
77350;SDS011;66420;50.246;14.320;2023-05-10T14:13:44;7.20;;;3.28;;
77350;SDS011;66420;50.246;14.320;2023-05-10T14:16:29;5.63;;;3.70;;
77350;SDS011;66420;50.246;14.320;2023-05-10T14:19:14;8.48;;;3.70;;
77350;SDS011;66420;50.246;14.320;2023-05-10T14:21:59;7.50;;;3.38;;
77350;SDS011;66420;50.246;14.320;2023-05-10T14:24:43;9.77;;;3.40;;
77350;SDS011;66420;50.246;14.320;2023-05-10T14:27:31;6.53;;;3.72;;
77350;SDS011;66420;50.246;14.320;2023-05-10T14:30:16;6.07;;;3.40;;
77350;SDS011;66420;50.246;14.320;2023-05-10T14:33:01;6.78;;;4.25;;
77350;SDS011;66420;50.246;14.320;2023-05-10T14:35:46;5.88;;;3.20;;
77350;SDS011;66420;50.246;14.320;2023-05-10T14:38:31;7.50;;;3.95;;
77350;SDS011;66420;50.246;14.320;2023-05-10T14:41:16;7.93;;;4.22;;
77350;SDS011;66420;50.246;14.320;2023-05-10T14:44:01;7.97;;;3.50;;
77350;SDS011;66420;50.246;14.320;2023-05-10T14:46:47;8.85;;;4.10;;
77350;SDS011;66420;50.246;14.320;2023-05-10T14:49:33;11.85;;;4.18;;
77350;SDS011;66420;50.246;14.320;2023-05-10T14:52:17;5.50;;;3.97;;
77350;SDS011;66420;50.246;14.320;2023-05-10T14:55:02;10.40;;;3.58;;
77350;SDS011;66420;50.246;14.320;2023-05-10T14:57:47;7.05;;;4.20;;
77350;SDS011;66420;50.246;14.320;2023-05-10T15:00:33;6.55;;;3.80;;
77350;SDS011;66420;50.246;14.320;2023-05-10T15:03:18;7.93;;;3.53;;
77350;SDS011;66420;50.246;14.320;2023-05-10T15:06:03;6.32;;;3.33;;
77350;SDS011;66420;50.246;14.320;2023-05-10T15:08:48;7.93;;;3.78;;
77350;SDS011;66420;50.246;14.320;2023-05-10T15:11:33;6.82;;;3.50;;
77350;SDS011;66420;50.246;14.320;2023-05-10T15:14:17;6.55;;;3.70;;
77350;SDS011;66420;50.246;14.320;2023-05-10T15:17:02;7.85;;;3.63;;
77350;SDS011;66420;50.246;14.320;2023-05-10T15:19:47;5.00;;;3.33;;
77350;SDS011;66420;50.246;14.320;2023-05-10T15:22:35;6.68;;;3.58;;
77350;SDS011;66420;50.246;14.320;2023-05-10T15:25:20;8.40;;;3.53;;
77350;SDS011;66420;50.246;14.320;2023-05-10T15:28:05;9.57;;;3.60;;
77350;SDS011;66420;50.246;14.320;2023-05-10T15:30:49;7.22;;;3.63;;
77350;SDS011;66420;50.246;14.320;2023-05-10T15:33:36;7.20;;;3.67;;
77350;SDS011;66420;50.246;14.320;2023-05-10T15:36:21;9.20;;;5.25;;
77350;SDS011;66420;50.246;14.320;2023-05-10T15:39:06;11.95;;;5.10;;
77350;SDS011;66420;50.246;14.320;2023-05-10T15:41:51;10.23;;;4.80;;
77350;SDS011;66420;50.246;14.320;2023-05-10T15:44:35;8.35;;;3.97;;
77350;SDS011;66420;50.246;14.320;2023-05-10T15:47:22;11.82;;;4.97;;
77350;SDS011;66420;50.246;14.320;2023-05-10T15:50:08;11.35;;;5.05;;
77350;SDS011;66420;50.246;14.320;2023-05-10T15:52:53;8.55;;;4.88;;
77350;SDS011;66420;50.246;14.320;2023-05-10T15:55:37;7.95;;;3.95;;
77350;SDS011;66420;50.246;14.320;2023-05-10T15:58:22;5.03;;;3.70;;
77350;SDS011;66420;50.246;14.320;2023-05-10T16:01:06;5.20;;;3.30;;
77350;SDS011;66420;50.246;14.320;2023-05-10T16:03:51;6.68;;;3.08;;
77350;SDS011;66420;50.246;14.320;2023-05-10T16:06:36;7.75;;;5.45;;
77350;SDS011;66420;50.246;14.320;2023-05-10T16:09:21;6.75;;;3.88;;
77350;SDS011;66420;50.246;14.320;2023-05-10T16:12:06;10.07;;;4.70;;
77350;SDS011;66420;50.246;14.320;2023-05-10T16:14:51;7.72;;;4.00;;
77350;SDS011;66420;50.246;14.320;2023-05-10T16:17:36;5.50;;;3.70;;
77350;SDS011;66420;50.246;14.320;2023-05-10T16:20:20;7.20;;;3.60;;
77350;SDS011;66420;50.246;14.320;2023-05-10T16:23:05;7.47;;;4.18;;
77350;SDS011;66420;50.246;14.320;2023-05-10T16:25:50;7.03;;;3.88;;
77350;SDS011;66420;50.246;14.320;2023-05-10T16:28:35;5.43;;;3.78;;
77350;SDS011;66420;50.246;14.320;2023-05-10T16:31:20;8.27;;;4.00;;
77350;SDS011;66420;50.246;14.320;2023-05-10T16:34:05;6.80;;;3.75;;
77350;SDS011;66420;50.246;14.320;2023-05-10T16:36:50;6.82;;;3.67;;
77350;SDS011;66420;50.246;14.320;2023-05-10T16:39:35;9.05;;;3.78;;
77350;SDS011;66420;50.246;14.320;2023-05-10T16:42:20;5.85;;;4.20;;
77350;SDS011;66420;50.246;14.320;2023-05-10T16:45:07;6.38;;;4.05;;
77350;SDS011;66420;50.246;14.320;2023-05-10T16:47:52;7.10;;;4.03;;
77350;SDS011;66420;50.246;14.320;2023-05-10T16:50:41;5.63;;;3.38;;
77350;SDS011;66420;50.246;14.320;2023-05-10T16:53:26;6.53;;;3.78;;
77350;SDS011;66420;50.246;14.320;2023-05-10T16:56:12;7.40;;;4.10;;
77350;SDS011;66420;50.246;14.320;2023-05-10T16:58:57;13.70;;;4.22;;
77350;SDS011;66420;50.246;14.320;2023-05-10T17:01:42;6.07;;;3.92;;
77350;SDS011;66420;50.246;14.320;2023-05-10T17:04:27;5.43;;;3.90;;
77350;SDS011;66420;50.246;14.320;2023-05-10T17:07:12;7.57;;;4.63;;
77350;SDS011;66420;50.246;14.320;2023-05-10T17:09:57;7.55;;;4.30;;
77350;SDS011;66420;50.246;14.320;2023-05-10T17:12:42;9.68;;;5.38;;
77350;SDS011;66420;50.246;14.320;2023-05-10T17:15:27;9.35;;;6.25;;
77350;SDS011;66420;50.246;14.320;2023-05-10T17:18:12;7.57;;;4.28;;
77350;SDS011;66420;50.246;14.320;2023-05-10T17:20:56;9.43;;;4.47;;
77350;SDS011;66420;50.246;14.320;2023-05-10T17:23:41;7.95;;;4.68;;
77350;SDS011;66420;50.246;14.320;2023-05-10T17:26:25;9.25;;;5.07;;
77350;SDS011;66420;50.246;14.320;2023-05-10T17:29:10;8.50;;;5.38;;
77350;SDS011;66420;50.246;14.320;2023-05-10T17:31:57;6.03;;;4.38;;
77350;SDS011;66420;50.246;14.320;2023-05-10T17:34:42;10.13;;;4.18;;
77350;SDS011;66420;50.246;14.320;2023-05-10T17:37:27;8.07;;;4.18;;
77350;SDS011;66420;50.246;14.320;2023-05-10T17:40:12;8.88;;;4.47;;
77350;SDS011;66420;50.246;14.320;2023-05-10T17:42:56;6.10;;;3.85;;
77350;SDS011;66420;50.246;14.320;2023-05-10T17:45:42;8.10;;;4.22;;
77350;SDS011;66420;50.246;14.320;2023-05-10T17:48:28;7.38;;;4.13;;
77350;SDS011;66420;50.246;14.320;2023-05-10T17:51:12;6.15;;;3.95;;
77350;SDS011;66420;50.246;14.320;2023-05-10T17:53:57;6.25;;;4.07;;
77350;SDS011;66420;50.246;14.320;2023-05-10T17:56:42;13.95;;;4.80;;
77350;SDS011;66420;50.246;14.320;2023-05-10T17:59:26;6.57;;;4.50;;
77350;SDS011;66420;50.246;14.320;2023-05-10T18:02:12;7.45;;;4.10;;
77350;SDS011;66420;50.246;14.320;2023-05-10T18:04:57;8.77;;;3.95;;
77350;SDS011;66420;50.246;14.320;2023-05-10T18:07:44;6.68;;;4.30;;
77350;SDS011;66420;50.246;14.320;2023-05-10T18:10:28;9.00;;;5.00;;
77350;SDS011;66420;50.246;14.320;2023-05-10T18:13:13;6.70;;;4.28;;
77350;SDS011;66420;50.246;14.320;2023-05-10T18:15:57;8.35;;;5.10;;
77350;SDS011;66420;50.246;14.320;2023-05-10T18:18:42;6.32;;;4.18;;
77350;SDS011;66420;50.246;14.320;2023-05-10T18:21:26;6.20;;;3.90;;
77350;SDS011;66420;50.246;14.320;2023-05-10T18:24:12;7.53;;;4.35;;